Latest Weather Observations for Port Macquarie Airport

IDN60801

Issued at 9:04 am EDT Saturday 28 March 2015 (issued every 30 minutes, with the page automatically refreshed every 10 minutes)

About weather observations | Map of weather stations | Latest weather observations for NSW | Other Formats
Station Details ID: 060139 Name: PORT MACQUARIE AIRPORT AWS Lat: -31.43 Lon: 152.87 Height: 4.2 m
Data from the previous 72 hours. | See also: Recent months at Port Macquarie Airport
Date/Time
EDT
Temp
°C
App
Temp
°C
Dew
Point
Rel
Hum
%
Delta-T
°C
Wind Press
QNH
hPa
Press
MSL
hPa
Rain
since 9 am
mm
Dir
 
Spd
km/h
Gust
km/h
Spd
kts
Gust
kts
28/09:00am 17.6 16.3 11.4 67 3.4 WSW 9 11 5 6 1022.6 1022.6 0.0
28/08:30am 16.0 13.5 11.2 73 2.6 WNW 15 19 8 10 1022.4 1022.4 0.0
28/08:00am 14.4 14.7 10.8 79 1.9 CALM 0 7 0 4 1022.0 1022.0 0.0
28/07:30am 13.2 11.8 10.9 86 1.2 WSW 9 13 5 7 1021.3 1021.3 0.0
28/07:00am 12.2 11.0 10.4 89 0.9 WSW 7 9 4 5 1021.0 1021.0 0.0
28/06:30am 11.8 10.2 10.2 90 0.8 WSW 9 11 5 6 1020.8 1020.8 0.0
28/06:00am 11.9 12.0 10.1 89 0.9 CALM 0 0 0 0 1020.3 1020.3 0.0
28/05:30am 13.0 11.7 11.1 88 1.0 WSW 9 13 5 7 1019.8 1019.8 0.0
28/05:00am 12.9 11.2 11.3 90 0.8 WSW 11 13 6 7 1019.5 1019.5 0.0
28/04:30am 13.1 11.8 11.2 88 1.0 WSW 9 11 5 6 1019.4 1019.4 0.0
28/04:00am 13.4 12.7 11.5 88 1.0 W 6 9 3 5 1019.3 1019.3 0.0
28/03:30am 13.4 13.5 11.6 89 1.0 WSW 2 6 1 3 1019.3 1019.3 0.0
28/03:00am 13.6 11.8 12.2 91 0.8 WNW 13 15 7 8 1019.4 1019.4 0.0
28/02:30am 13.0 12.3 11.9 93 0.6 WNW 7 11 4 6 1019.5 1019.5 0.0
28/02:00am 12.7 13.2 11.6 93 0.6 CALM 0 0 0 0 1019.8 1019.8 0.0
28/01:30am 12.7 13.1 11.4 92 0.7 CALM 0 0 0 0 1019.8 1019.8 0.0
28/01:00am 13.0 13.2 11.9 93 0.6 SSW 2 6 1 3 1019.9 1019.9 0.0
28/12:30am 13.1 13.3 12.0 93 0.6 E 2 9 1 5 1020.0 1020.0 0.0
28/12:00am 13.4 14.1 12.3 93 0.6 CALM 0 0 0 0 1020.1 1020.1 0.0
 
Date/Time
EDT
Temp
°C
App
Temp
°C
Dew
Point
Rel
Hum
%
Delta-T
°C
Wind Press
QNH
hPa
Press
MSL
hPa
Rain
since 9 am
mm
Dir
 
Spd
km/h
Gust
km/h
Spd
kts
Gust
kts
27/11:30pm 13.4 14.1 12.3 93 0.6 CALM 0 0 0 0 1020.3 1020.3 0.0
27/11:00pm 13.4 14.1 12.1 92 0.7 CALM 0 0 0 0 1020.3 1020.3 0.0
27/10:30pm 13.8 14.5 12.2 90 0.9 CALM 0 0 0 0 1020.3 1020.3 0.0
27/10:00pm 14.5 15.4 13.0 91 0.8 CALM 0 0 0 0 1020.4 1020.4 0.0
27/09:30pm 14.8 15.0 13.0 89 1.0 E 4 7 2 4 1020.5 1020.5 0.0
27/09:00pm 15.4 16.4 13.1 86 1.3 CALM 0 0 0 0 1020.3 1020.3 0.0
27/08:30pm 15.8 16.7 12.9 83 1.6 CALM 0 0 0 0 1020.1 1020.1 0.0
27/08:00pm 16.5 17.3 12.7 78 2.1 CALM 0 0 0 0 1019.7 1019.7 0.0
27/07:30pm 17.7 18.7 13.2 75 2.5 CALM 0 2 0 1 1019.4 1019.4 0.0
27/07:00pm 19.0 19.8 12.5 66 3.6 CALM 0 6 0 3 1019.1 1019.1 0.0
27/06:30pm 20.8 19.5 11.2 54 5.3 ESE 9 11 5 6 1018.7 1018.7 0.0
27/06:00pm 22.1 20.1 10.3 47 6.4 SSE 11 15 6 8 1018.5 1018.5 0.0
27/05:30pm 22.6 20.0 9.4 43 7.1 SSE 13 19 7 10 1018.2 1018.2 0.0
27/05:00pm 22.9 19.2 9.3 42 7.3 SE 19 22 10 12 1018.0 1018.0 0.0
27/04:30pm 23.6 20.6 9.2 40 7.8 SSE 15 20 8 11 1017.8 1017.8 0.0
27/04:00pm 23.4 20.7 10.5 44 7.1 SE 15 20 8 11 1018.0 1018.0 0.0
27/03:30pm 23.9 20.9 10.6 43 7.4 SSE 17 26 9 14 1018.1 1018.1 0.0
27/03:00pm 24.0 21.1 12.3 48 6.7 SE 19 28 10 15 1018.4 1018.4 0.0
27/02:30pm 24.0 20.6 11.3 45 7.1 SSE 20 26 11 14 1018.6 1018.6 0.0
27/02:00pm 23.1 19.4 11.5 48 6.5 SSE 22 28 12 15 1018.8 1018.8 0.0
27/01:30pm 24.1 22.6 10.7 43 7.4 S 9 17 5 9 1019.0 1019.0 0.0
27/01:00pm 23.9 23.2 11.9 47 6.8 S 7 15 4 8 1019.3 1019.3 0.0
27/12:30pm 23.5 21.9 11.5 47 6.7 SSE 11 17 6 9 1019.8 1019.8 0.0
27/12:00pm 22.6 20.8 10.7 47 6.5 SSE 11 19 6 10 1020.0 1020.0 0.0
27/11:30am 22.2 20.1 11.0 49 6.2 S 13 19 7 10 1020.2 1020.2 0.0
27/11:00am 22.0 20.5 10.5 48 6.3 SW 9 15 5 8 1020.3 1020.3 0.0
27/10:30am 22.0 19.3 10.5 48 6.3 S 15 20 8 11 1020.4 1020.4 0.0
27/10:00am 21.1 18.5 9.4 47 6.2 SSW 13 19 7 10 1020.5 1020.5 0.0
27/09:30am 20.6 17.4 10.1 51 5.7 SSW 17 22 9 12 1020.5 1020.5 0.0
27/09:00am 19.9 16.7 9.8 52 5.4 SW 17 22 9 12 1020.4 1020.4 0.0
27/08:30am 18.9 16.4 9.7 55 4.9 SSW 13 20 7 11 1020.4 1020.4 0.0
27/08:00am 17.7 16.5 11.7 68 3.3 SW 9 11 5 6 1020.1 1020.1 0.0
27/07:30am 15.6 14.4 11.6 77 2.2 SW 9 11 5 6 1019.7 1019.7 0.0
27/07:00am 15.6 13.5 11.0 74 2.4 WSW 13 15 7 8 1019.3 1019.3 0.0
27/06:30am 15.5 14.0 10.7 73 2.5 WSW 9 11 5 6 1018.9 1018.9 0.0
27/06:00am 16.2 14.1 9.8 66 3.3 WSW 11 13 6 7 1018.4 1018.4 0.0
27/05:30am 16.2 14.9 11.2 72 2.7 SW 9 13 5 7 1018.1 1018.1 0.0
27/05:00am 17.4 15.4 10.3 63 3.8 WSW 11 13 6 7 1017.9 1017.9 0.0
27/04:30am 18.7 16.7 10.0 57 4.6 SW 11 15 6 8 1017.7 1017.7 0.0
27/04:00am 19.1 16.6 10.9 59 4.4 SW 15 20 8 11 1017.4 1017.4 0.0
27/03:30am 19.5 17.1 11.3 59 4.5 SW 15 20 8 11 1017.4 1017.4 0.0
27/03:00am 19.4 17.7 13.6 69 3.3 SW 15 17 8 9 1017.4 1017.4 0.0
27/02:30am 20.2 19.1 15.2 73 2.9 SW 15 24 8 13 1017.4 1017.4 0.0
27/02:00am 20.5 19.7 17.1 81 2.1 SW 17 26 9 14 1017.5 1017.5 0.0
27/01:30am 21.5 23.9 20.8 96 0.5 SW 9 15 5 8 1017.5 1017.5 0.0
27/01:00am 21.5 24.3 20.8 96 0.5 SW 7 9 4 5 1017.4 1017.4 0.0
27/12:30am 21.8 24.5 21.3 97 0.3 SW 9 11 5 6 1017.3 1017.3 0.0
27/12:00am 22.0 24.8 21.5 97 0.3 SW 9 9 5 5 1017.2 1017.2 0.0
 
Date/Time
EDT
Temp
°C
App
Temp
°C
Dew
Point
Rel
Hum
%
Delta-T
°C
Wind Press
QNH
hPa
Press
MSL
hPa
Rain
since 9 am
mm
Dir
 
Spd
km/h
Gust
km/h
Spd
kts
Gust
kts
26/11:30pm 22.3 25.2 21.8 97 0.3 SW 9 11 5 6 1017.3 1017.3 0.0
26/11:00pm 22.4 25.7 21.9 97 0.3 SW 7 11 4 6 1017.3 1017.3 0.0
26/10:30pm 22.7 26.2 22.2 97 0.3 SW 7 9 4 5 1017.6 1017.6 0.0
26/10:00pm 23.0 26.2 22.3 96 0.5 SW 9 9 5 5 1017.5 1017.5 0.0
26/09:30pm 22.9 26.4 22.1 95 0.5 SW 7 9 4 5 1017.3 1017.3 0.0
26/09:00pm 23.4 28.3 22.4 94 0.7 CALM 0 0 0 0 1017.1 1017.1 0.0
26/08:51pm 23.5 28.5 22.5 94 0.7 CALM 0 0 0 0 1017.0 1017.0 0.0
26/08:50pm 23.5 28.4 22.3 93 0.8 CALM 0 0 0 0 1016.9 - 0.0
26/08:36pm 23.9 29.1 22.9 94 0.7 CALM 0 0 0 0 1016.8 1016.8 0.0
26/08:35pm 23.9 29.1 22.9 94 0.7 CALM 0 0 0 0 1016.8 - 0.0
26/08:30pm 23.8 28.9 22.6 93 0.8 CALM 0 0 0 0 1016.8 1016.8 0.0
26/08:00pm 24.2 29.0 22.8 92 0.9 S 2 7 1 4 1016.2 1016.2 0.0
26/07:30pm 25.0 30.0 23.2 90 1.2 NE 2 6 1 3 1015.7 1015.7 0.0
26/07:00pm 25.5 29.4 23.6 89 1.3 NE 9 13 5 7 1015.3 1015.3 0.0
26/06:30pm 26.0 29.1 23.5 86 1.7 ENE 13 17 7 9 1015.0 1015.0 0.0
26/06:01pm 26.4 30.4 23.7 85 1.9 ENE 9 15 5 8 1014.8 1014.8 0.0
26/06:00pm 26.3 30.2 23.6 85 1.8 ENE 9 15 5 8 1014.8 1014.8 0.0
26/05:30pm 26.4 29.9 23.5 84 2.0 E 11 15 6 8 1014.6 1014.6 0.0
26/05:23pm 26.1 29.0 23.2 84 2.0 E 13 19 7 10 1014.5 1014.5 0.0
26/05:22pm 26.2 29.2 23.3 84 2.0 E 13 19 7 10 1014.5 - 0.0
26/05:00pm 26.1 28.1 23.0 83 2.1 E 17 20 9 11 1014.4 1014.4 0.0
26/04:30pm 26.4 28.3 22.7 80 2.5 ENE 17 22 9 12 1014.3 1014.3 0.0
26/04:00pm 26.4 27.7 22.7 80 2.5 ENE 20 26 11 14 1014.3 1014.3 0.0
26/03:30pm 27.0 28.7 23.0 79 2.7 ENE 19 24 10 13 1014.6 1014.6 0.0
26/03:00pm 26.5 27.6 22.3 78 2.8 ENE 20 28 11 15 1014.9 1014.9 0.0
26/02:30pm 25.9 26.8 22.0 79 2.6 ENE 20 28 11 15 1015.1 1015.1 0.0
26/02:00pm 25.8 26.3 21.9 79 2.6 ENE 22 30 12 16 1015.4 1015.4 0.0
26/01:30pm 27.0 27.6 21.3 71 3.8 ENE 20 28 11 15 1015.8 1015.8 0.0
26/01:00pm 27.3 28.2 21.6 71 3.8 ENE 19 24 10 13 1016.2 1016.2 0.0
26/12:30pm 28.0 29.2 22.2 70 3.9 ENE 19 26 10 14 1016.6 1016.6 0.0
26/12:00pm 27.7 29.5 20.3 64 4.8 N 11 19 6 10 1017.0 1017.0 0.0
26/11:30am 27.3 28.8 20.6 67 4.4 N 13 20 7 11 1017.3 1017.3 0.0
26/11:00am 26.5 26.9 19.9 67 4.3 N 17 24 9 13 1017.5 1017.5 0.0
26/10:30am 26.2 27.7 20.5 71 3.7 N 13 19 7 10 1017.7 1017.7 0.0
26/10:00am 25.0 26.0 19.4 71 3.6 N 13 20 7 11 1017.9 1017.9 0.0
26/09:30am 24.4 25.9 19.7 75 3.0 NNW 11 15 6 8 1018.0 1018.0 0.0
26/09:00am 22.9 24.5 19.1 79 2.4 NW 9 13 5 7 1018.1 1018.1 0.0
26/08:30am 21.9 23.9 18.7 82 2.0 NW 6 9 3 5 1017.9 1017.9 0.0
26/08:00am 20.5 23.6 18.6 89 1.2 CALM 0 2 0 1 1017.8 1017.8 0.0
26/07:30am 20.2 23.4 18.9 92 0.8 CALM 0 0 0 0 1017.4 1017.4 0.0
26/07:00am 20.1 23.2 18.6 91 0.9 CALM 0 4 0 2 1017.3 1017.3 0.0
26/06:30am 20.4 23.5 18.7 90 1.1 CALM 0 0 0 0 1017.2 1017.2 0.0
26/06:00am 20.5 23.6 18.6 89 1.2 CALM 0 6 0 3 1017.0 1017.0 0.0
26/05:30am 20.7 24.0 19.0 90 1.1 CALM 0 0 0 0 1016.8 1016.8 0.0
26/05:00am 20.6 23.8 18.9 90 1.1 CALM 0 0 0 0 1016.7 1016.7 0.0
26/04:30am 20.7 24.0 19.0 90 1.1 CALM 0 0 0 0 1016.6 1016.6 0.0
26/04:00am 20.6 23.7 18.7 89 1.2 CALM 0 0 0 0 1016.6 1016.6 0.0
26/03:30am 20.8 24.1 19.1 90 1.1 CALM 0 0 0 0 1016.6 1016.6 0.0
26/03:00am 20.9 24.0 18.7 87 1.4 CALM 0 0 0 0 1016.9 1016.9 0.0
26/02:30am 20.7 23.3 18.5 87 1.4 NW 2 7 1 4 1017.2 1017.2 0.0
26/02:00am 20.7 23.3 18.5 87 1.4 NW 2 7 1 4 1017.4 1017.4 0.0
26/01:30am 20.8 22.7 18.6 87 1.4 WNW 6 6 3 3 1017.5 1017.5 0.0
26/01:00am 21.0 24.1 18.6 86 1.5 CALM 0 0 0 0 1017.7 1017.7 0.0
26/12:30am 20.9 22.8 18.5 86 1.5 NW 6 9 3 5 1017.8 1017.8 0.0
26/12:00am 21.0 23.9 19.1 89 1.2 NW 2 7 1 4 1017.8 1017.8 0.0
 
Date/Time
EDT
Temp
°C
App
Temp
°C
Dew
Point
Rel
Hum
%
Delta-T
°C
Wind Press
QNH
hPa
Press
MSL
hPa
Rain
since 9 am
mm
Dir
 
Spd
km/h
Gust
km/h
Spd
kts
Gust
kts
25/11:30pm 21.3 24.6 19.0 87 1.5 CALM 0 0 0 0 1017.9 1017.9 0.0
25/11:00pm 21.5 24.7 18.9 85 1.6 CALM 0 4 0 2 1018.2 1018.2 0.0
25/10:30pm 21.2 24.2 18.4 84 1.7 CALM 0 0 0 0 1018.3 1018.3 0.0
25/10:00pm 21.1 23.0 18.5 85 1.6 WNW 6 7 3 4 1018.3 1018.3 0.0
25/09:30pm 21.4 23.4 19.1 87 1.5 NW 7 9 4 5 1018.2 1018.2 0.0
25/09:00pm 21.5 23.4 18.5 83 1.9 WNW 6 7 3 4 1017.9 1017.9 0.0
25/08:30pm 21.6 23.5 18.6 83 1.9 W 6 9 3 5 1017.6 1017.6 0.0
25/08:00pm 21.6 23.4 18.4 82 2.0 WNW 6 7 3 4 1017.4 1017.4 0.0
25/07:30pm 22.0 25.1 18.6 81 2.1 CALM 0 0 0 0 1017.0 1017.0 0.0
25/07:00pm 22.2 24.0 18.4 79 2.4 WNW 6 7 3 4 1016.8 1016.8 0.0
25/06:30pm 22.7 24.2 17.6 73 3.2 SSW 6 7 3 4 1016.6 1016.6 0.0
25/06:00pm 22.9 24.1 17.4 71 3.4 S 7 11 4 6 1016.3 1016.3 0.0
25/05:30pm 23.1 23.9 17.3 70 3.6 S 9 13 5 7 1015.9 1015.9 0.0
25/05:00pm 23.1 23.0 16.9 68 3.8 S 13 19 7 10 1015.8 1015.8 0.0
25/04:30pm 23.1 23.0 16.9 68 3.8 S 13 19 7 10 1015.7 1015.7 0.0
25/04:00pm 23.2 22.5 16.5 66 4.1 S 15 22 8 12 1015.5 1015.5 0.0
25/03:30pm 23.3 23.1 16.6 66 4.1 S 13 20 7 11 1015.6 1015.6 0.0
25/03:00pm 23.7 22.0 17.2 67 4.0 S 22 28 12 15 1015.4 1015.4 0.0
25/02:30pm 24.3 23.1 17.5 66 4.2 S 20 28 11 15 1015.4 1015.4 0.0
25/02:00pm 24.3 23.6 18.2 68 3.8 S 19 26 10 14 1015.4 1015.4 0.0
25/01:30pm 23.9 22.2 18.1 70 3.6 S 24 32 13 17 1015.6 1015.6 0.0
25/01:00pm 23.9 22.7 17.4 67 4.0 S 20 28 11 15 1015.9 1015.9 0.0
25/12:30pm 24.6 22.9 17.1 63 4.6 S 22 30 12 16 1015.9 1015.9 0.0
25/12:00pm 25.1 23.8 17.3 62 4.8 S 20 28 11 15 1016.0 1016.0 0.0
25/11:30am 24.1 22.7 16.6 63 4.6 S 19 24 10 13 1016.2 1016.2 0.0
25/11:00am 23.8 22.6 17.1 66 4.1 SSW 19 28 10 15 1016.0 1016.0 0.0
25/10:30am 23.9 22.0 16.7 64 4.4 S 22 32 12 17 1016.2 1016.2 0.0
25/10:00am 24.0 23.1 18.2 70 3.6 SSW 20 30 11 16 1016.0 1016.0 0.0
25/09:30am 23.6 22.4 17.6 69 3.7 SW 20 32 11 17 1015.7 1015.7 0.0

Other Formats:

Comma delimited format used in spreadsheet applications
http://www.bom.gov.au/fwo/IDN60801/IDN60801.94786.axf

JavaScript Object Notation format (JSON) in row-major order
http://www.bom.gov.au/fwo/IDN60801/IDN60801.94786.json